Terminal Aerodrome Forecast
Issued by NWS Burlington, VT

Home | Current Version | Previous Version | Text Only | Print | Product List | Glossary On
Versions: 1 2 3 4 5 6 7 8 9 10 11 12 13 14 15 16 17
000
FTUS41 KBTV 181131
TAFBTV
TAF
KBTV 181131Z 1812/1912 17005KT P6SM SCT120 BKN200
     FM182300 17007KT P6SM VCSH OVC060
     FM190100 17008KT P6SM -RA OVC040
     FM190300 18009G16KT 4SM -RA BR OVC035
     FM190800 18011G18KT P6SM -RA OVC028=

USA.gov is the U.S. government's official web portal to all federal, state and local government web resources and services.